createdAt,value
2018-03-15T00:01:13.495Z,23.92
2018-03-15T00:03:40.942Z,27.33
2018-03-15T00:06:08.410Z,26.70
2018-03-15T00:08:35.867Z,22.48
2018-03-15T00:11:03.359Z,24.60
2018-03-15T00:13:30.818Z,23.62
2018-03-15T00:15:59.066Z,22.83
2018-03-15T00:18:26.555Z,22.62
2018-03-15T00:20:54.063Z,25.92
2018-03-15T00:23:21.534Z,26.75
2018-03-15T00:25:49.025Z,23.52
2018-03-15T00:28:16.490Z,24.20
2018-03-15T00:30:43.986Z,22.30
2018-03-15T00:33:12.267Z,21.25
2018-03-15T00:35:39.763Z,20.73
2018-03-15T00:38:07.241Z,24.58
2018-03-15T00:40:34.703Z,26.67
2018-03-15T00:43:02.177Z,22.37
2018-03-15T00:45:29.638Z,25.75
2018-03-15T00:47:57.094Z,24.05
2018-03-15T00:50:24.562Z,24.12
2018-03-15T00:52:52.078Z,29.27
2018-03-15T00:55:19.546Z,27.17
2018-03-15T00:57:47.019Z,24.37
2018-03-15T01:00:14.508Z,23.80
2018-03-15T01:02:42.040Z,21.40
2018-03-15T01:05:09.510Z,22.42
2018-03-15T01:07:36.982Z,24.67
2018-03-15T01:10:04.462Z,22.08
2018-03-15T01:12:31.958Z,24.73
2018-03-15T01:14:59.433Z,23.12
2018-03-15T01:17:26.902Z,25.85
2018-03-15T01:19:54.367Z,25.37
2018-03-15T01:22:21.863Z,21.20
2018-03-15T01:24:49.356Z,26.15
2018-03-15T01:27:16.810Z,22.75
2018-03-15T01:29:45.048Z,25.52
2018-03-15T01:32:12.533Z,25.00
2018-03-15T01:34:40.018Z,25.45
2018-03-15T01:37:07.513Z,24.15
2018-03-15T01:39:35.006Z,24.63
2018-03-15T01:42:02.711Z,25.70
2018-03-15T01:44:30.254Z,22.95
2018-03-15T01:46:57.756Z,20.42
2018-03-15T01:49:25.276Z,22.10
2018-03-15T01:51:52.742Z,20.77
2018-03-15T01:54:20.248Z,19.12
2018-03-15T01:56:47.707Z,19.05
2018-03-15T01:59:15.282Z,16.90
2018-03-15T02:01:42.765Z,19.83
2018-03-15T02:04:10.234Z,16.60
2018-03-15T02:06:37.709Z,18.55
2018-03-15T02:09:05.194Z,14.60
2018-03-15T02:11:32.686Z,17.02
2018-03-15T02:14:00.160Z,15.43
2018-03-15T02:16:27.649Z,12.80
2018-03-15T02:18:55.126Z,14.15
2018-03-15T02:21:22.602Z,14.75
2018-03-15T02:23:50.859Z,17.50
2018-03-15T02:26:18.341Z,13.90
2018-03-15T02:28:46.573Z,14.20
2018-03-15T02:31:14.055Z,15.55
2018-03-15T02:33:41.532Z,11.55
2018-03-15T02:36:09.775Z,13.50
2018-03-15T02:38:37.942Z,16.85
2018-03-15T02:41:05.405Z,13.35
2018-03-15T02:46:23.935Z,13.98
2018-03-15T02:48:51.400Z,13.88
2018-03-15T02:51:18.870Z,11.32
2018-03-15T02:53:46.336Z,10.10
2018-03-15T02:56:13.822Z,8.77
2018-03-15T02:58:41.276Z,10.60
2018-03-15T03:01:08.803Z,8.60
2018-03-15T03:03:36.285Z,9.23
2018-03-15T03:06:03.750Z,11.00
2018-03-15T03:08:31.211Z,8.40
2018-03-15T03:10:58.685Z,8.73
2018-03-15T03:13:26.914Z,9.20
2018-03-15T03:15:54.418Z,12.85
2018-03-15T03:18:21.885Z,12.40
2018-03-15T03:20:49.341Z,10.13
2018-03-15T03:23:16.801Z,8.77
2018-03-15T03:25:44.326Z,8.85
2018-03-15T03:28:11.841Z,8.10
2018-03-15T03:30:40.011Z,10.45
2018-03-15T03:33:07.482Z,12.15
2018-03-15T03:35:34.938Z,8.85
2018-03-15T03:38:02.431Z,7.35
2018-03-15T03:40:29.896Z,8.25
2018-03-15T03:42:57.369Z,8.25
2018-03-15T03:45:24.842Z,8.88
2018-03-15T03:47:52.661Z,8.40
2018-03-15T03:50:20.124Z,8.00
2018-03-15T03:52:47.596Z,7.70
2018-03-15T03:55:15.143Z,8.43
2018-03-15T03:57:42.613Z,9.40
2018-03-15T04:00:10.199Z,9.52
2018-03-15T04:02:37.652Z,9.52
2018-03-15T04:05:05.145Z,7.10
2018-03-15T04:07:32.598Z,11.57
2018-03-15T04:10:00.068Z,8.88
2018-03-15T04:12:27.541Z,8.50
2018-03-15T04:14:55.820Z,10.73
2018-03-15T04:17:24.088Z,9.85
2018-03-15T04:19:51.557Z,10.82
2018-03-15T04:22:19.770Z,12.75
2018-03-15T04:24:47.237Z,16.98
2018-03-15T04:27:14.714Z,12.77
2018-03-15T04:29:42.172Z,10.20
2018-03-15T04:32:09.627Z,17.25
2018-03-15T04:34:37.088Z,13.70
2018-03-15T04:37:04.549Z,14.90
2018-03-15T04:39:32.028Z,16.10
2018-03-15T04:41:59.483Z,14.90
2018-03-15T04:44:27.819Z,17.60
2018-03-15T04:46:55.280Z,14.15
2018-03-15T04:49:22.773Z,17.60
2018-03-15T04:51:50.233Z,15.52
2018-03-15T04:54:18.468Z,15.65
2018-03-15T04:56:45.944Z,21.75
2018-03-15T04:59:13.432Z,18.65
2018-03-15T05:01:41.694Z,19.17
2018-03-15T05:04:09.161Z,20.77
2018-03-15T05:06:36.617Z,20.30
2018-03-15T05:09:04.845Z,20.65
2018-03-15T05:11:32.327Z,20.37
2018-03-15T05:13:59.822Z,17.73
2018-03-15T05:16:27.282Z,19.87
2018-03-15T05:18:54.760Z,18.65
2018-03-15T05:21:22.252Z,20.83
2018-03-15T05:23:49.741Z,22.42
2018-03-15T05:26:17.980Z,17.90
2018-03-15T05:28:45.463Z,23.38
2018-03-15T05:31:13.030Z,21.55
2018-03-15T05:33:40.389Z,19.08
2018-03-15T05:36:07.848Z,24.00
2018-03-15T05:38:35.435Z,16.42
2018-03-15T05:41:02.922Z,21.40
2018-03-15T05:43:30.409Z,20.25
2018-03-15T05:45:58.664Z,17.62
2018-03-15T05:48:26.169Z,21.33
2018-03-15T05:50:53.678Z,17.42
2018-03-15T05:53:21.152Z,17.10
2018-03-15T05:55:49.406Z,15.80
2018-03-15T05:58:16.902Z,19.60
2018-03-15T06:00:45.366Z,15.45
2018-03-15T06:03:13.727Z,16.65
2018-03-15T06:05:41.208Z,18.27
2018-03-15T06:08:09.478Z,15.80
2018-03-15T06:10:36.949Z,20.88
2018-03-15T06:13:04.475Z,18.58
2018-03-15T06:15:32.940Z,15.23
2018-03-15T06:18:00.404Z,17.10
2018-03-15T06:20:27.862Z,16.00
2018-03-15T06:22:55.337Z,14.30
2018-03-15T06:25:22.793Z,11.12
2018-03-15T06:27:50.262Z,11.60
2018-03-15T06:30:18.499Z,14.30
2018-03-15T06:32:45.963Z,8.77
2018-03-15T06:35:13.418Z,12.25
2018-03-15T06:37:40.861Z,11.18
2018-03-15T06:40:08.351Z,12.90
2018-03-15T06:42:35.817Z,13.98
2018-03-15T06:45:04.267Z,15.35
2018-03-15T06:47:31.738Z,14.07
2018-03-15T06:49:59.230Z,14.90
2018-03-15T06:52:26.698Z,13.43
2018-03-15T06:54:54.147Z,11.00
2018-03-15T06:57:21.598Z,12.57
2018-03-15T06:59:49.046Z,15.00
2018-03-15T07:02:16.862Z,13.18
2018-03-15T07:04:44.340Z,11.23
2018-03-15T07:07:11.900Z,10.48
2018-03-15T07:09:39.353Z,10.27
2018-03-15T07:12:06.816Z,9.45
2018-03-15T07:14:34.278Z,8.88
2018-03-15T07:17:01.780Z,9.65
2018-03-15T07:19:29.236Z,9.07
2018-03-15T07:21:56.925Z,11.80
2018-03-15T07:24:24.419Z,7.97
2018-03-15T07:26:51.905Z,10.50
2018-03-15T07:29:20.139Z,11.10
2018-03-15T07:31:47.617Z,11.70
2018-03-15T07:34:15.838Z,11.57
2018-03-15T07:36:43.322Z,10.88
2018-03-15T07:39:10.772Z,11.20
2018-03-15T07:41:38.368Z,10.85
2018-03-15T07:44:05.907Z,11.02
2018-03-15T07:46:33.460Z,10.15
2018-03-15T07:49:00.938Z,9.00
2018-03-15T07:51:28.413Z,8.43
2018-03-15T07:53:56.632Z,13.82
2018-03-15T07:56:24.078Z,8.77
2018-03-15T07:58:52.303Z,10.23
2018-03-15T08:01:19.753Z,10.38
2018-03-15T08:03:48.000Z,8.98
2018-03-15T08:06:15.446Z,9.68
2018-03-15T08:08:42.954Z,7.80
2018-03-15T08:11:11.230Z,7.00
2018-03-15T08:13:39.485Z,8.40
2018-03-15T08:16:06.969Z,10.02
2018-03-15T08:18:35.195Z,10.75
2018-03-15T08:21:02.697Z,8.05
2018-03-15T08:23:30.921Z,9.05
2018-03-15T08:25:58.430Z,12.90
2018-03-15T08:28:26.660Z,9.10
2018-03-15T08:30:54.149Z,11.70
2018-03-15T08:33:21.970Z,9.77
2018-03-15T08:35:49.457Z,8.93
2018-03-15T08:38:16.955Z,8.85
2018-03-15T08:40:44.438Z,10.57
2018-03-15T08:43:11.926Z,8.02
2018-03-15T08:45:39.420Z,14.50
2018-03-15T08:48:06.930Z,11.32
2018-03-15T08:50:34.402Z,10.55
2018-03-15T08:53:01.878Z,10.57
2018-03-15T08:55:30.167Z,11.07
2018-03-15T08:57:57.618Z,11.63
2018-03-15T09:00:25.151Z,9.38
2018-03-15T09:02:52.632Z,12.48
2018-03-15T09:05:20.910Z,11.38
2018-03-15T09:07:49.159Z,10.02
2018-03-15T09:10:16.635Z,12.60
2018-03-15T09:12:44.136Z,13.07
2018-03-15T09:15:11.605Z,12.15
2018-03-15T09:17:39.107Z,16.05
2018-03-15T09:20:06.590Z,11.50
2018-03-15T09:22:34.079Z,14.85
2018-03-15T09:25:01.701Z,18.60
2018-03-15T09:27:29.229Z,12.07
2018-03-15T09:29:56.797Z,14.82
2018-03-15T09:32:24.300Z,11.80
2018-03-15T09:34:52.541Z,14.73
2018-03-15T09:37:20.051Z,16.50
2018-03-15T09:39:47.551Z,15.10
2018-03-15T09:42:15.808Z,16.80
2018-03-15T09:44:43.277Z,14.87
2018-03-15T09:47:11.652Z,15.40
2018-03-15T09:49:39.186Z,14.20
2018-03-15T09:52:06.674Z,16.80
2018-03-15T09:54:34.995Z,16.75
2018-03-15T09:57:02.479Z,17.83
2018-03-15T09:59:30.167Z,21.83
2018-03-15T10:01:58.423Z,18.27
2018-03-15T10:04:25.923Z,16.65
2018-03-15T10:06:53.410Z,20.60
2018-03-15T10:09:20.994Z,16.17
2018-03-15T10:11:48.473Z,20.83
2018-03-15T10:14:16.735Z,16.75
2018-03-15T10:16:44.419Z,21.37
2018-03-15T10:19:11.942Z,22.17
2018-03-15T10:21:39.436Z,18.95
2018-03-15T10:24:07.734Z,22.15
2018-03-15T10:26:35.213Z,21.42
2018-03-15T10:29:02.698Z,22.90
2018-03-15T10:31:30.235Z,23.38
2018-03-15T10:33:57.714Z,21.48
2018-03-15T10:36:25.183Z,19.45
2018-03-15T10:38:52.654Z,20.25
2018-03-15T10:41:20.954Z,21.15
2018-03-15T10:43:48.442Z,21.15
2018-03-15T10:46:15.927Z,19.73
2018-03-15T10:48:44.182Z,22.20
2018-03-15T10:51:11.664Z,21.02
2018-03-15T10:53:39.147Z,19.55
2018-03-15T10:56:07.381Z,21.73
2018-03-15T10:58:34.876Z,19.60
2018-03-15T11:01:06.131Z,20.10
2018-03-15T11:03:39.369Z,18.00
2018-03-15T11:06:10.758Z,23.77
2018-03-15T11:08:38.279Z,25.60
2018-03-15T11:11:05.748Z,22.77
2018-03-15T11:13:33.319Z,22.25
2018-03-15T11:16:00.834Z,22.48
2018-03-15T11:18:28.327Z,22.35
2018-03-15T11:20:55.854Z,24.00
2018-03-15T11:23:23.334Z,23.92
2018-03-15T11:25:50.823Z,27.77
2018-03-15T11:28:18.293Z,27.17
2018-03-15T11:30:45.793Z,29.55
2018-03-15T11:33:13.286Z,31.52
2018-03-15T11:35:40.810Z,29.65
2018-03-15T11:38:08.309Z,28.02
2018-03-15T11:40:35.800Z,30.27
2018-03-15T11:43:03.277Z,27.92
2018-03-15T11:45:30.786Z,27.50
2018-03-15T11:47:58.294Z,27.27
2018-03-15T11:50:25.767Z,28.77
2018-03-15T11:52:53.279Z,28.58
2018-03-15T11:55:20.824Z,28.52
2018-03-15T11:57:48.360Z,27.25
2018-03-15T12:00:16.621Z,27.35
2018-03-15T12:02:44.184Z,26.48
2018-03-15T12:05:12.453Z,26.67
2018-03-15T12:07:40.102Z,26.58
2018-03-15T12:10:07.554Z,23.30
2018-03-15T12:12:35.067Z,25.35
2018-03-15T12:15:02.691Z,30.88
2018-03-15T12:17:30.188Z,26.83
2018-03-15T12:19:58.445Z,26.37
2018-03-15T12:22:25.923Z,25.75
2018-03-15T12:24:53.431Z,26.80
2018-03-15T12:27:20.919Z,25.08
2018-03-15T12:29:48.388Z,26.70
2018-03-15T12:32:15.862Z,28.40
2018-03-15T12:34:43.333Z,23.58
2018-03-15T12:37:10.830Z,25.27
2018-03-15T12:39:38.411Z,23.05
2018-03-15T12:42:05.972Z,20.65
2018-03-15T12:44:34.235Z,25.83
2018-03-15T12:47:01.694Z,26.92
2018-03-15T12:49:29.199Z,24.58
2018-03-15T12:51:56.682Z,24.40
2018-03-15T12:54:24.163Z,24.42
2018-03-15T12:56:51.662Z,23.20
2018-03-15T12:59:19.163Z,29.70
2018-03-15T13:01:46.675Z,27.42
2018-03-15T13:04:14.238Z,24.77
2018-03-15T13:06:42.774Z,32.83
2018-03-15T13:09:10.279Z,29.87
2018-03-15T13:11:37.754Z,30.05
2018-03-15T13:14:05.235Z,26.08
2018-03-15T13:16:32.773Z,31.48
2018-03-15T13:19:00.252Z,24.50
2018-03-15T13:21:27.735Z,28.62
2018-03-15T13:23:55.254Z,30.98
2018-03-15T13:26:22.754Z,25.65
2018-03-15T13:28:51.291Z,26.08
2018-03-15T13:31:19.771Z,30.20
2018-03-15T13:33:47.280Z,28.45
2018-03-15T13:36:15.557Z,27.60
2018-03-15T13:38:43.816Z,26.55
2018-03-15T13:41:11.429Z,22.67
2018-03-15T13:43:39.087Z,24.05
2018-03-15T13:46:06.586Z,26.85
2018-03-15T13:48:34.248Z,27.48
2018-03-15T13:51:01.841Z,29.20
2018-03-15T13:53:29.395Z,28.87
2018-03-15T13:55:58.883Z,34.70
2018-03-15T13:58:27.267Z,29.17
2018-03-15T14:00:55.522Z,24.85
2018-03-15T14:03:23.001Z,24.80
2018-03-15T14:05:51.462Z,25.40
2018-03-15T14:08:18.942Z,26.52
2018-03-15T14:10:47.173Z,26.83
2018-03-15T14:13:14.635Z,24.67
2018-03-15T14:15:42.102Z,26.70
2018-03-15T14:18:09.610Z,23.92
2018-03-15T14:20:37.060Z,25.50
2018-03-15T14:23:04.568Z,23.95
2018-03-15T14:25:32.063Z,23.70
2018-03-15T14:27:59.551Z,29.12
2018-03-15T14:30:27.040Z,26.77
2018-03-15T14:32:54.523Z,24.20
2018-03-15T14:35:22.078Z,22.23
2018-03-15T14:37:49.634Z,24.27
2018-03-15T14:40:17.154Z,24.35
2018-03-15T14:42:44.630Z,29.40
2018-03-15T14:45:12.166Z,20.77
2018-03-15T14:47:39.691Z,27.58
2018-03-15T14:50:07.913Z,23.65
2018-03-15T14:52:35.417Z,23.05
2018-03-15T14:55:02.906Z,20.00
2018-03-15T14:57:30.381Z,22.52
2018-03-15T14:59:57.899Z,27.35
2018-03-15T15:02:25.373Z,23.77
2018-03-15T15:04:52.923Z,23.48
2018-03-15T15:07:20.815Z,19.92
2018-03-15T15:09:48.320Z,20.42
2018-03-15T15:12:16.184Z,21.17
2018-03-15T15:14:43.702Z,26.05
2018-03-15T15:17:11.397Z,19.55
2018-03-15T15:19:38.981Z,21.58
2018-03-15T15:22:07.226Z,19.48
2018-03-15T15:24:34.703Z,23.25
2018-03-15T15:27:02.224Z,21.45
2018-03-15T15:29:29.696Z,19.02
2018-03-15T15:31:57.194Z,20.58
2018-03-15T15:34:24.683Z,19.27
2018-03-15T15:36:52.318Z,19.35
2018-03-15T15:39:19.823Z,20.37
2018-03-15T15:41:47.304Z,20.25
2018-03-15T15:44:14.785Z,15.82
2018-03-15T15:46:43.018Z,18.37
2018-03-15T15:49:10.516Z,19.08
2018-03-15T15:51:38.015Z,16.62
2018-03-15T15:54:05.490Z,20.23
2018-03-15T15:56:33.052Z,16.40
2018-03-15T15:59:00.580Z,19.58
2018-03-15T16:01:28.164Z,18.50
2018-03-15T16:03:55.656Z,18.27
2018-03-15T16:06:23.315Z,17.58
2018-03-15T16:08:51.794Z,15.82
2018-03-15T16:11:20.113Z,17.45
2018-03-15T16:13:47.627Z,15.35
2018-03-15T16:16:15.105Z,18.30
2018-03-15T16:18:42.949Z,13.70
2018-03-15T16:21:10.421Z,15.68
2018-03-15T16:23:37.888Z,15.70
2018-03-15T16:26:05.417Z,16.15
2018-03-15T16:28:32.958Z,14.77
2018-03-15T16:31:00.435Z,14.50
2018-03-15T16:33:27.979Z,20.67
2018-03-15T16:35:55.451Z,17.85
2018-03-15T16:38:23.000Z,17.30
2018-03-15T16:40:50.529Z,14.68
2018-03-15T16:43:18.059Z,15.23
2018-03-15T16:45:46.306Z,17.52
2018-03-15T16:48:13.790Z,16.20
2018-03-15T16:50:41.318Z,14.05
2018-03-15T16:53:08.868Z,16.27
2018-03-15T16:55:36.362Z,14.23
2018-03-15T16:58:03.918Z,15.50
2018-03-15T17:00:31.433Z,16.62
2018-03-15T17:02:58.966Z,16.62
2018-03-15T17:05:26.435Z,14.50
2018-03-15T17:07:53.907Z,11.85
2018-03-15T17:10:21.379Z,13.85
2018-03-15T17:12:48.849Z,14.82
2018-03-15T17:15:16.326Z,15.05
2018-03-15T17:17:43.807Z,16.20
2018-03-15T17:20:11.291Z,13.45
2018-03-15T17:22:39.771Z,12.88
2018-03-15T17:25:07.234Z,16.30
2018-03-15T17:27:34.739Z,14.98
2018-03-15T17:30:02.236Z,15.77
2018-03-15T17:32:29.749Z,15.57
2018-03-15T17:34:57.220Z,14.32
2018-03-15T17:37:24.687Z,13.55
2018-03-15T17:39:52.164Z,13.27
2018-03-15T17:42:19.650Z,12.80
2018-03-15T17:44:47.132Z,13.15
2018-03-15T17:47:14.632Z,19.62
2018-03-15T17:49:42.086Z,13.93
2018-03-15T17:52:09.568Z,14.85
2018-03-15T17:54:37.035Z,12.98
2018-03-15T17:57:04.562Z,15.23
2018-03-15T17:59:32.041Z,12.77
2018-03-15T18:01:59.515Z,13.38
2018-03-15T18:04:26.994Z,13.38
2018-03-15T18:06:54.490Z,16.48
2018-03-15T18:09:22.027Z,14.40
2018-03-15T18:11:49.470Z,13.07
2018-03-15T18:14:17.005Z,11.73
2018-03-15T18:16:44.490Z,14.68
2018-03-15T18:19:12.010Z,13.20
2018-03-15T18:21:39.481Z,13.45
2018-03-15T18:24:06.958Z,16.10
2018-03-15T18:26:34.435Z,12.30
2018-03-15T18:29:01.906Z,13.38
2018-03-15T18:31:29.401Z,11.02
2018-03-15T18:33:56.915Z,14.20
2018-03-15T18:36:24.416Z,12.68
2018-03-15T18:38:51.882Z,15.30
2018-03-15T18:41:19.583Z,13.40
2018-03-15T18:43:47.080Z,15.30
2018-03-15T18:46:14.858Z,14.23
2018-03-15T18:48:42.378Z,11.43
2018-03-15T18:51:09.954Z,18.27
2018-03-15T18:53:37.441Z,13.43
2018-03-15T18:56:05.651Z,15.45
2018-03-15T18:58:33.153Z,13.57
2018-03-15T19:01:00.637Z,14.05
2018-03-15T19:03:28.109Z,12.80
2018-03-15T19:05:55.614Z,13.65
2018-03-15T19:08:23.109Z,15.25
2018-03-15T19:10:50.770Z,15.05
2018-03-15T19:13:18.382Z,16.12
2018-03-15T19:15:45.964Z,14.00
2018-03-15T19:18:13.459Z,13.05
2018-03-15T19:20:40.958Z,15.15
2018-03-15T19:23:08.441Z,15.30
2018-03-15T19:25:35.923Z,13.62
2018-03-15T19:28:03.407Z,13.43
2018-03-15T19:30:30.879Z,13.52
2018-03-15T19:32:58.387Z,13.75
2018-03-15T19:35:26.149Z,15.30
2018-03-15T19:37:54.511Z,11.73
2018-03-15T19:40:22.064Z,16.83
2018-03-15T19:42:49.556Z,11.70
2018-03-15T19:45:17.810Z,11.82
2018-03-15T19:47:45.274Z,10.52
2018-03-15T19:50:12.820Z,16.15
2018-03-15T19:52:40.546Z,10.93
2018-03-15T19:55:08.080Z,10.75
2018-03-15T19:57:35.597Z,11.23
2018-03-15T20:00:04.067Z,10.38
2018-03-15T20:02:31.630Z,10.15
2018-03-15T20:05:00.035Z,10.32
2018-03-15T20:07:28.298Z,8.55
2018-03-15T20:09:55.775Z,11.00
2018-03-15T20:12:23.246Z,10.55
2018-03-15T20:14:50.716Z,10.60
2018-03-15T20:20:22.174Z,9.65
2018-03-15T20:22:55.228Z,9.77
2018-03-15T20:25:22.711Z,8.90
2018-03-15T20:27:56.042Z,10.07
2018-03-15T20:30:23.494Z,10.48
2018-03-15T20:32:57.322Z,9.63
2018-03-15T20:35:24.856Z,8.90
2018-03-15T20:37:52.365Z,10.05
2018-03-15T20:40:25.518Z,11.02
2018-03-15T20:42:52.992Z,10.55
2018-03-15T20:45:26.087Z,12.60
2018-03-15T20:47:59.168Z,12.65
2018-03-15T20:50:26.653Z,9.27
2018-03-15T20:52:54.142Z,10.18
2018-03-15T20:55:21.718Z,12.48
2018-03-15T20:57:49.240Z,12.15
2018-03-15T21:00:16.692Z,9.07
2018-03-15T21:02:44.179Z,10.45
2018-03-15T21:05:11.654Z,10.25
2018-03-15T21:07:39.130Z,12.43
2018-03-15T21:10:06.642Z,9.73
2018-03-15T21:12:34.126Z,10.70
2018-03-15T21:15:02.367Z,10.18
2018-03-15T21:17:29.947Z,7.87
2018-03-15T21:19:57.419Z,10.02
2018-03-15T21:22:24.912Z,9.93
2018-03-15T21:24:52.467Z,11.82
2018-03-15T21:27:19.939Z,11.82
2018-03-15T21:29:47.427Z,12.82
2018-03-15T21:32:14.943Z,9.80
2018-03-15T21:34:42.408Z,12.07
2018-03-15T21:37:09.900Z,13.90
2018-03-15T21:39:37.560Z,13.13
2018-03-15T21:42:05.925Z,13.43
2018-03-15T21:44:33.463Z,15.98
2018-03-15T21:47:00.956Z,12.57
2018-03-15T21:49:28.429Z,11.55
2018-03-15T21:51:56.695Z,10.43
2018-03-15T21:54:24.969Z,9.40
2018-03-15T21:56:52.452Z,11.52
2018-03-15T21:59:19.910Z,12.20
2018-03-15T22:01:47.496Z,10.93
2018-03-15T22:04:14.998Z,13.18
2018-03-15T22:06:42.457Z,11.25
2018-03-15T22:09:10.704Z,11.43
2018-03-15T22:11:38.172Z,10.45
2018-03-15T22:14:05.642Z,13.32
2018-03-15T22:16:33.093Z,15.25
2018-03-15T22:19:00.976Z,12.90
2018-03-15T22:21:28.421Z,13.13
2018-03-15T22:23:55.890Z,11.50
2018-03-15T22:26:23.350Z,17.37
2018-03-15T22:28:51.605Z,11.80
2018-03-15T22:31:19.070Z,13.27
2018-03-15T22:33:46.524Z,11.45
2018-03-15T22:36:13.983Z,13.25
2018-03-15T22:38:42.220Z,14.27
2018-03-15T22:41:09.675Z,13.07
2018-03-15T22:43:37.132Z,13.55
2018-03-15T22:46:04.591Z,12.23
2018-03-15T22:48:32.061Z,12.68
2018-03-15T22:50:59.522Z,14.10
2018-03-15T22:53:26.990Z,13.20
2018-03-15T22:55:54.458Z,14.20
2018-03-15T22:58:21.933Z,15.50
2018-03-15T23:00:49.402Z,13.38
2018-03-15T23:03:16.876Z,14.57
2018-03-15T23:05:44.355Z,14.93
2018-03-15T23:08:11.860Z,14.02
2018-03-15T23:10:39.327Z,14.52
2018-03-15T23:13:06.824Z,14.60
2018-03-15T23:15:34.313Z,15.32
2018-03-15T23:18:01.775Z,14.77
2018-03-15T23:20:30.048Z,18.23
2018-03-15T23:22:57.516Z,15.27
2018-03-15T23:25:24.985Z,17.23
2018-03-15T23:27:52.451Z,18.20
2018-03-15T23:30:19.914Z,19.40
2018-03-15T23:32:47.387Z,15.60
2018-03-15T23:35:14.844Z,19.67
2018-03-15T23:37:42.326Z,19.80
2018-03-15T23:40:09.787Z,19.08
2018-03-15T23:42:37.265Z,14.65
2018-03-15T23:45:05.495Z,16.75
2018-03-15T23:47:32.940Z,21.25
2018-03-15T23:50:00.415Z,17.27
2018-03-15T23:52:27.892Z,19.27
2018-03-15T23:54:55.372Z,18.83
2018-03-15T23:57:23.628Z,16.95
2018-03-15T23:59:51.102Z,17.80
